Time;durP1;ratioP1;P1;durP2;ratioP2;P2;SDS_P1;SDS_P2;PMS_P1;PMS_P2;Temp;Humidity;BMP_temperature;BMP_pressure;BME280_temperature;BME280_humidity;BME280_pressure;Samples;Min_cycle;Max_cycle;Signal;HPM_P1;HPM_P2
2023/01/29 00:00:08;;;;;;;39.95;21.63;;;;;;;-2.83;100.00;103030.06;5236801;28;20062;-81
2023/01/29 00:02:40;;;;;;;40.67;21.33;;;;;;;-2.88;100.00;103027.47;5241763;28;20558;-83
2023/01/29 00:05:12;;;;;;;41.05;21.15;;;;;;;-2.90;100.00;103037.03;5223060;28;20022;-82
2023/01/29 00:07:44;;;;;;;43.78;21.58;;;;;;;-2.90;100.00;103017.00;5223247;28;20069;-82
2023/01/29 00:10:19;;;;;;;40.80;20.02;;;;;;;-2.80;100.00;103023.09;5224712;28;20290;-81
2023/01/29 00:12:50;;;;;;;43.92;22.45;;;;;;;-2.73;100.00;103021.34;5236335;28;20045;-81
2023/01/29 00:15:22;;;;;;;41.72;21.38;;;;;;;-2.67;100.00;103010.88;5236714;28;20336;-82
2023/01/29 00:17:54;;;;;;;40.45;21.08;;;;;;;-2.60;100.00;103022.19;5238058;28;20447;-83
2023/01/29 00:20:26;;;;;;;37.55;20.60;;;;;;;-2.51;100.00;103009.97;5220357;28;20038;-82
2023/01/29 00:22:58;;;;;;;43.63;22.38;;;;;;;-2.44;100.00;103007.31;5219542;28;20164;-82
2023/01/29 00:25:31;;;;;;;44.55;22.30;;;;;;;-2.41;100.00;103005.56;5231783;28;20502;-83
2023/01/29 00:28:02;;;;;;;38.88;20.70;;;;;;;-2.37;100.00;102998.56;5229232;28;20026;-83
2023/01/29 00:30:35;;;;;;;38.42;20.63;;;;;;;-2.32;100.00;102995.06;5231601;28;20041;-82
2023/01/29 00:33:07;;;;;;;36.38;21.35;;;;;;;-2.35;100.00;102992.47;5214518;28;20061;-82
2023/01/29 00:35:40;;;;;;;37.08;20.95;;;;;;;-2.28;100.00;102999.41;5217251;28;20176;-83
2023/01/29 00:38:12;;;;;;;35.67;19.90;;;;;;;-2.25;100.00;102995.03;5226940;28;20038;-83
2023/01/29 00:46:24;;;;;;;35.70;20.58;;;;;;;-2.21;100.00;102981.97;5224608;28;20046;-83
2023/01/29 00:48:55;;;;;;;32.25;19.27;;;;;;;-2.16;100.00;102979.31;5216760;28;20045;-83
2023/01/29 00:51:27;;;;;;;36.40;20.42;;;;;;;-2.23;100.00;102973.22;5231400;28;20060;-82
2023/01/29 00:53:59;;;;;;;34.15;19.73;;;;;;;-2.25;100.00;102968.91;5233770;28;20558;-82
2023/01/29 00:56:34;;;;;;;35.42;20.77;;;;;;;-2.26;100.00;102972.38;5236469;28;20150;-82
2023/01/29 00:59:06;;;;;;;35.08;20.20;;;;;;;-2.28;100.00;102957.59;5219030;28;20130;-82
2023/01/29 01:04:28;;;;;;;32.97;19.25;;;;;;;-2.26;100.00;102954.97;5236385;28;20038;-82
2023/01/29 01:06:59;;;;;;;37.05;21.23;;;;;;;-2.26;100.00;102948.84;5237446;28;20497;-83
2023/01/29 01:12:29;;;;;;;38.85;20.92;;;;;;;-2.30;100.00;102955.84;5225215;28;20079;-82
2023/01/29 01:15:01;;;;;;;32.47;18.52;;;;;;;-2.29;100.00;102971.53;5199642;28;20037;-81
2023/01/29 01:17:33;;;;;;;39.00;20.70;;;;;;;-2.35;100.00;102970.69;5199662;28;20027;-82
2023/01/29 01:20:04;;;;;;;40.40;21.58;;;;;;;-2.46;100.00;102970.72;5199767;28;20085;-82
2023/01/29 01:22:36;;;;;;;47.53;23.55;;;;;;;-2.48;100.00;102975.97;5215769;28;20060;-83
2023/01/29 01:25:09;;;;;;;47.20;22.67;;;;;;;-2.41;100.00;102965.50;5199184;28;20022;-82
2023/01/29 01:27:41;;;;;;;40.60;21.80;;;;;;;-2.41;100.00;102955.91;5199268;28;20037;-82
2023/01/29 01:30:14;;;;;;;37.08;21.27;;;;;;;-2.34;100.00;102956.75;5199340;28;20034;-82
2023/01/29 01:32:46;;;;;;;39.00;21.88;;;;;;;-2.31;100.00;102964.56;5217255;28;20042;-82
2023/01/29 01:35:18;;;;;;;41.25;22.23;;;;;;;-2.39;100.00;102972.44;5198646;28;20057;-83
2023/01/29 01:37:50;;;;;;;40.13;22.10;;;;;;;-2.41;100.00;102966.34;5199850;28;20026;-83
2023/01/29 01:40:23;;;;;;;37.90;21.83;;;;;;;-2.39;100.00;102967.22;5195943;28;20038;-82
2023/01/29 01:42:57;;;;;;;38.10;21.23;;;;;;;-2.40;100.00;102972.44;5199903;28;20022;-82
2023/01/29 01:45:30;;;;;;;41.38;22.90;;;;;;;-2.57;100.00;102962.94;5214649;28;20030;-82
2023/01/29 01:48:20;;;;;;;39.40;23.00;;;;;;;-2.53;100.00;102971.63;5214690;28;20026;-82
2023/01/29 01:50:57;;;;;;;39.90;22.23;;;;;;;-2.60;100.00;102967.31;5213296;28;20054;-82
2023/01/29 01:53:38;;;;;;;39.72;22.52;;;;;;;-2.64;100.00;102974.28;5199708;28;20054;-82
2023/01/29 01:56:20;;;;;;;44.30;23.58;;;;;;;-2.69;100.00;102968.22;5212525;28;20442;-82
2023/01/29 01:58:56;;;;;;;47.92;24.50;;;;;;;-2.69;100.00;102968.22;5195610;28;20030;-82
2023/01/29 02:01:28;;;;;;;42.47;23.15;;;;;;;-2.70;100.00;102975.19;5194085;28;20166;-82
2023/01/29 02:10:14;;;;;;;49.83;24.08;;;;;;;-2.69;100.00;102976.03;5216063;28;20042;-82
2023/01/29 02:12:47;;;;;;;42.95;24.27;;;;;;;-2.75;100.00;102976.94;5213022;28;20917;-82
2023/01/29 02:15:18;;;;;;;47.95;23.65;;;;;;;-2.76;100.00;102976.94;5235641;28;20081;-81
2023/01/29 02:17:50;;;;;;;48.70;24.15;;;;;;;-2.76;100.00;102972.56;5218939;28;20030;-81
2023/01/29 02:20:26;;;;;;;45.38;24.08;;;;;;;-2.70;100.00;102974.28;5231364;28;20029;-82
2023/01/29 02:23:16;;;;;;;40.78;21.90;;;;;;;-2.63;100.00;102983.88;5218374;28;20022;-82
2023/01/29 02:26:00;;;;;;;49.20;24.55;;;;;;;-2.72;100.00;102971.72;5229091;28;20048;-82
2023/01/29 02:29:21;;;;;;;57.20;25.85;;;;;;;-2.67;100.00;102988.22;5217256;28;20081;-82
2023/01/29 02:32:13;;;;;;;59.55;27.73;;;;;;;-2.57;100.00;102985.59;5217788;28;20125;-83
2023/01/29 02:37:52;;;;;;;47.22;25.77;;;;;;;-2.35;100.00;102976.78;5238469;28;20046;-82
2023/01/29 02:40:30;;;;;;;44.13;23.40;;;;;;;-2.20;100.00;102981.06;5236051;28;20026;-82
2023/01/29 02:43:14;;;;;;;48.28;26.17;;;;;;;-2.15;100.00;102984.53;5234839;28;20065;-81
2023/01/29 02:45:52;;;;;;;48.78;24.65;;;;;;;-2.12;100.00;102967.97;5221453;28;20044;-81
2023/01/29 02:48:28;;;;;;;46.95;26.33;;;;;;;-1.97;100.00;102969.59;5222311;28;20034;-81
2023/01/29 02:51:06;;;;;;;46.13;25.73;;;;;;;-1.91;100.00;102974.81;5238063;28;20406;-82
2023/01/29 02:53:54;;;;;;;43.38;22.63;;;;;;;-1.84;100.00;102973.00;5222858;28;20141;-82
2023/01/29 02:56:33;;;;;;;;;;;;;;;-1.78;100.00;102967.75;5217313;28;20034;-81
2023/01/29 02:59:24;;;;;;;43.42;23.55;;;;;;;-1.73;100.00;102964.19;5234067;28;19926;-81
2023/01/29 03:02:05;;;;;;;45.63;24.58;;;;;;;-1.74;100.00;102965.06;5237192;28;20038;-81
2023/01/29 03:04:44;;;;;;;46.38;25.73;;;;;;;-1.66;100.00;102972.88;5221196;28;20034;-81
2023/01/29 03:07:43;;;;;;;47.92;25.35;;;;;;;-1.58;100.00;102980.66;5237360;28;20112;-81
2023/01/29 03:10:16;;;;;;;48.65;24.58;;;;;;;-1.43;100.00;102972.69;5235875;28;20046;-83
2023/01/29 03:12:58;;;;;;;54.90;27.00;;;;;;;-1.42;100.00;102969.22;5219533;28;20141;-82
2023/01/29 03:15:41;;;;;;;44.28;24.73;;;;;;;-1.37;100.00;102969.16;5234533;28;20026;-81
2023/01/29 03:18:16;;;;;;;42.03;24.42;;;;;;;-1.39;100.00;102969.16;5218056;28;20061;-82
2023/01/29 03:20:53;;;;;;;44.63;24.35;;;;;;;-1.39;100.00;102965.69;5218510;28;20129;-82
2023/01/29 03:32:05;;;;;;;43.90;23.10;;;;;;;-1.37;100.00;102969.16;5239831;28;20055;-82
2023/01/29 03:34:44;;;;;;;38.92;22.83;;;;;;;-1.31;100.00;102956.03;5221423;28;20475;-82
2023/01/29 03:37:23;;;;;;;36.90;22.85;;;;;;;-1.38;100.00;102949.97;5221733;28;20034;-81
2023/01/29 03:39:54;;;;;;;38.03;22.77;;;;;;;-1.33;100.00;102953.41;5219905;28;20479;-81
2023/01/29 03:42:29;;;;;;;39.05;23.75;;;;;;;-1.26;100.00;102961.19;5233879;28;20045;-82
2023/01/29 03:45:04;;;;;;;37.45;22.83;;;;;;;-1.25;100.00;102955.94;5220328;28;20451;-82
2023/01/29 03:47:39;;;;;;;40.80;24.35;;;;;;;-1.22;100.00;102955.06;5237548;28;20157;-81
2023/01/29 03:50:40;;;;;;;40.30;24.17;;;;;;;-1.18;100.00;102956.75;5218879;28;20551;-81
2023/01/29 03:53:32;;;;;;;40.35;24.15;;;;;;;-1.17;100.00;102951.50;5234880;28;20026;-82
2023/01/29 03:56:14;;;;;;;36.08;22.17;;;;;;;-1.13;100.00;102935.78;5233762;28;20045;-82
2023/01/29 03:59:10;;;;;;;38.08;21.98;;;;;;;-1.04;100.00;102936.53;5221010;28;20074;-81
2023/01/29 04:01:53;;;;;;;37.35;22.10;;;;;;;-1.08;100.00;102931.34;5235537;28;20039;-82
2023/01/29 04:04:33;;;;;;;39.25;23.40;;;;;;;-1.01;100.00;102933.88;5237579;28;20402;-82
2023/01/29 04:07:11;;;;;;;38.28;23.23;;;;;;;-1.03;100.00;102933.03;5237844;28;20054;-81
2023/01/29 04:09:48;;;;;;;39.55;23.85;;;;;;;-1.02;100.00;102932.13;5220199;28;21243;-81
2023/01/29 04:12:27;;;;;;;38.63;24.65;;;;;;;-1.02;100.00;102928.66;5234979;28;20117;-82
2023/01/29 04:15:01;;;;;;;36.42;23.42;;;;;;;-1.02;100.00;102908.56;5218462;28;20030;-82
2023/01/29 04:17:39;;;;;;;36.90;22.00;;;;;;;-0.99;100.00;102918.16;5221129;28;20494;-82
2023/01/29 04:20:11;;;;;;;37.42;22.20;;;;;;;-0.95;100.00;102919.84;5232124;28;20041;-82
2023/01/29 04:22:46;;;;;;;35.63;21.73;;;;;;;-0.88;100.00;102918.88;5233543;28;20026;-82
2023/01/29 04:25:28;;;;;;;38.88;23.58;;;;;;;-0.90;100.00;102909.31;5233793;28;20030;-81
2023/01/29 04:28:22;;;;;;;37.70;23.08;;;;;;;-0.83;100.00;102917.06;5220179;28;20097;-82
2023/01/29 04:30:59;;;;;;;38.20;22.80;;;;;;;-0.80;100.00;102924.06;5236251;28;20037;-82
2023/01/29 04:33:34;;;;;;;34.97;19.60;;;;;;;-0.63;100.00;102915.97;5220050;28;20126;-83
2023/01/29 04:36:24;;;;;;;34.88;19.50;;;;;;;-0.51;100.00;102915.81;5237194;28;20088;-81
2023/01/29 04:39:17;;;;;;;40.40;22.60;;;;;;;-0.50;100.00;102920.16;5236089;28;20033;-81
2023/01/29 04:41:58;;;;;;;35.05;20.73;;;;;;;-0.46;100.00;102921.84;5212055;28;20046;-82
2023/01/29 04:44:36;;;;;;;42.33;24.52;;;;;;;-0.55;100.00;102906.25;5207696;28;20391;-81
2023/01/29 04:47:16;;;;;;;40.30;22.98;;;;;;;-0.48;100.00;102899.19;5229861;28;20030;-81
2023/01/29 04:50:23;;;;;;;40.58;23.98;;;;;;;-0.46;100.00;102890.38;5223764;28;20479;-82
2023/01/29 04:53:19;;;;;;;41.60;24.67;;;;;;;-0.56;100.00;102886.19;5228687;28;20058;-82
2023/01/29 04:56:09;;;;;;;42.33;25.88;;;;;;;-0.53;100.00;102888.75;5204050;28;20073;-81
2023/01/29 04:58:51;;;;;;;41.75;23.48;;;;;;;-0.54;100.00;102873.03;5227910;28;20036;-81
2023/01/29 05:01:28;;;;;;;38.95;23.42;;;;;;;-0.51;100.00;102873.84;5204435;28;20033;-81
2023/01/29 05:04:05;;;;;;;39.25;24.17;;;;;;;-0.50;100.00;102872.13;5212433;28;20026;-82
2023/01/29 05:06:38;;;;;;;40.38;23.65;;;;;;;-0.48;100.00;102871.19;5208227;28;20022;-82
2023/01/29 05:09:13;;;;;;;40.03;23.80;;;;;;;-0.41;100.00;102871.97;5217268;28;20527;-81
2023/01/29 05:11:46;;;;;;;45.25;27.08;;;;;;;-0.46;100.00;102863.31;5215256;28;20069;-82
2023/01/29 05:14:19;;;;;;;40.08;24.33;;;;;;;-0.43;100.00;102866.75;5216056;28;20022;-81
2023/01/29 05:16:54;;;;;;;42.17;23.95;;;;;;;-0.37;100.00;102871.03;5233032;28;20034;-81
2023/01/29 05:19:29;;;;;;;43.35;27.15;;;;;;;-0.32;100.00;102868.38;5210795;28;20030;-81
2023/01/29 05:22:04;;;;;;;42.25;24.08;;;;;;;-0.31;100.00;102864.88;5228936;28;20475;-81
2023/01/29 05:24:37;;;;;;;44.45;26.17;;;;;;;-0.36;100.00;102859.69;5229874;28;20053;-81
2023/01/29 05:30:10;;;;;;;45.33;27.08;;;;;;;-0.32;100.00;102852.63;5227246;28;20033;-81
2023/01/29 05:32:41;;;;;;;44.40;25.95;;;;;;;-0.29;100.00;102849.97;5215059;28;20471;-81
2023/01/29 05:35:13;;;;;;;42.38;25.77;;;;;;;-0.30;100.00;102843.88;5217759;28;20032;-82
2023/01/29 05:37:45;;;;;;;44.53;26.77;;;;;;;-0.31;100.00;102836.88;5214443;28;20041;-82
2023/01/29 05:40:16;;;;;;;40.38;26.23;;;;;;;-0.28;100.00;102841.19;5220250;28;20072;-83
2023/01/29 05:42:49;;;;;;;46.10;26.15;;;;;;;-0.25;100.00;102851.63;5226610;28;20045;-80
2023/01/29 05:45:21;;;;;;;40.58;25.40;;;;;;;-0.24;100.00;102845.53;5230649;28;20026;-81
2023/01/29 05:47:57;;;;;;;42.58;26.50;;;;;;;-0.26;100.00;102845.53;5211917;28;20081;-81
2023/01/29 05:50:28;;;;;;;44.27;27.50;;;;;;;-0.26;100.00;102844.69;5226189;28;20034;-81
2023/01/29 05:53:01;;;;;;;41.30;24.75;;;;;;;-0.23;100.00;102853.38;5225414;28;20030;-82
2023/01/29 05:55:32;;;;;;;48.17;28.08;;;;;;;-0.24;100.00;102848.16;5207888;28;20049;-82
2023/01/29 05:58:03;;;;;;;50.85;31.05;;;;;;;-0.20;100.00;102858.53;5231471;28;20112;-82
2023/01/29 06:00:35;;;;;;;42.25;27.17;;;;;;;-0.22;100.00;102857.72;5227642;28;20418;-82
2023/01/29 06:03:07;;;;;;;46.80;29.05;;;;;;;-0.20;100.00;102860.31;5231040;28;20042;-82
2023/01/29 06:05:39;;;;;;;44.28;26.95;;;;;;;-0.20;100.00;102863.78;5231645;28;20110;-81
2023/01/29 06:08:10;;;;;;;44.00;27.60;;;;;;;-0.16;100.00;102863.75;5233248;28;20117;-82
2023/01/29 06:10:42;;;;;;;46.55;30.63;;;;;;;-0.19;100.00;102859.44;5217603;28;20505;-82
2023/01/29 06:13:13;;;;;;;44.45;28.60;;;;;;;-0.17;100.00;102862.91;5232378;28;20459;-81
2023/01/29 06:15:45;;;;;;;44.60;29.38;;;;;;;-0.12;100.00;102862.81;5220341;28;20065;-82
2023/01/29 06:18:17;;;;;;;47.30;28.80;;;;;;;-0.12;100.00;102868.94;5238210;28;20030;-82
2023/01/29 06:20:48;;;;;;;47.45;29.25;;;;;;;-0.07;100.00;102874.09;5238538;28;20042;-82
2023/01/29 06:23:20;;;;;;;48.65;30.80;;;;;;;-0.06;100.00;102879.31;5236119;28;20136;-82
2023/01/29 06:25:52;;;;;;;45.35;29.00;;;;;;;-0.06;100.00;102887.19;5236392;28;20022;-82
2023/01/29 06:28:23;;;;;;;46.33;29.30;;;;;;;-0.05;100.00;102891.56;5235735;28;20506;-82
2023/01/29 06:31:02;;;;;;;42.15;26.77;;;;;;;0.08;100.00;102891.38;5220243;28;20486;-81
2023/01/29 06:33:33;;;;;;;44.35;26.77;;;;;;;0.01;100.00;102872.22;5219322;28;20058;-81
2023/01/29 06:36:05;;;;;;;49.47;30.38;;;;;;;-0.05;100.00;102852.22;5217715;28;20061;-81
2023/01/29 06:38:37;;;;;;;46.85;30.05;;;;;;;-0.05;100.00;102846.97;5221208;28;20041;-82
2023/01/29 06:41:15;;;;;;;47.58;29.90;;;;;;;-0.02;100.00;102840.78;5234158;28;20029;-81
2023/01/29 06:43:47;;;;;;;46.67;30.20;;;;;;;-0.03;100.00;102841.69;5238901;28;20038;-82
2023/01/29 06:46:19;;;;;;;48.20;29.50;;;;;;;-0.03;100.00;102846.94;5226912;28;20053;-82
2023/01/29 06:48:50;;;;;;;45.90;27.08;;;;;;;-0.06;100.00;102850.47;5225830;28;20032;-82
2023/01/29 06:51:22;;;;;;;46.88;30.42;;;;;;;-0.02;100.00;102851.28;5227019;28;20097;-81
2023/01/29 06:53:54;;;;;;;46.30;28.80;;;;;;;-0.04;100.00;102839.94;5245934;28;20081;-81
2023/01/29 06:56:26;;;;;;;44.95;28.00;;;;;;;-0.03;100.00;102845.16;5230051;28;20075;-82
2023/01/29 06:58:57;;;;;;;45.30;27.85;;;;;;;-0.04;100.00;102832.94;5229000;28;20030;-81
2023/01/29 07:01:30;;;;;;;47.20;29.70;;;;;;;-0.05;100.00;102832.97;5244818;28;20042;-81
2023/01/29 07:04:01;;;;;;;47.15;27.33;;;;;;;0.05;100.00;102831.06;5243984;28;20427;-81
2023/01/29 07:06:33;;;;;;;42.95;28.75;;;;;;;0.03;100.00;102832.84;5237008;28;20034;-81
2023/01/29 07:09:05;;;;;;;45.60;28.38;;;;;;;-0.02;100.00;102830.28;5221314;28;20030;-80
2023/01/29 07:11:36;;;;;;;46.28;28.48;;;;;;;0.04;100.00;102842.47;5225026;28;20073;-82
2023/01/29 07:14:08;;;;;;;46.15;28.13;;;;;;;0.01;100.00;102835.50;5199531;28;20022;-81
2023/01/29 07:16:39;;;;;;;47.42;28.42;;;;;;;0.10;100.00;102837.09;5215321;28;20033;-82
2023/01/29 07:19:11;;;;;;;44.70;27.55;;;;;;;0.11;100.00;102839.69;5222153;28;20345;-81
2023/01/29 07:21:42;;;;;;;46.33;27.90;;;;;;;0.09;100.00;102846.72;5202970;28;20039;-81
2023/01/29 07:24:15;;;;;;;47.13;28.05;;;;;;;0.11;100.00;102849.34;5198513;28;20049;-82
2023/01/29 07:26:47;;;;;;;46.28;28.40;;;;;;;0.09;100.00;102843.22;5197893;28;20022;-81
2023/01/29 07:29:18;;;;;;;45.95;30.17;;;;;;;0.09;100.00;102848.47;5214268;28;20033;-81
2023/01/29 07:31:50;;;;;;;46.78;26.75;;;;;;;0.14;100.00;102849.25;5201127;28;20027;-83
2023/01/29 07:34:22;;;;;;;43.00;28.40;;;;;;;0.14;100.00;102846.63;5201661;28;20109;-81
2023/01/29 07:36:53;;;;;;;47.10;28.75;;;;;;;0.17;100.00;102851.84;5200095;28;20360;-81
2023/01/29 07:39:25;;;;;;;45.95;29.95;;;;;;;0.15;100.00;102836.13;5200994;28;20034;-81
2023/01/29 07:41:56;;;;;;;47.50;28.50;;;;;;;0.20;100.00;102827.31;5198258;28;20046;-81
2023/01/29 07:44:28;;;;;;;43.53;29.65;;;;;;;0.12;100.00;102820.44;5199385;28;20031;-81
2023/01/29 07:46:59;;;;;;;47.65;30.20;;;;;;;0.16;100.00;102832.63;5213816;28;20490;-81
2023/01/29 07:49:31;;;;;;;42.97;28.02;;;;;;;0.25;100.00;102842.09;5211029;28;20064;-81
2023/01/29 07:52:03;;;;;;;41.95;27.15;;;;;;;0.21;100.00;102831.66;5213482;28;20049;-80
2023/01/29 07:54:34;;;;;;;47.42;28.08;;;;;;;0.18;100.00;102838.69;5192873;28;20038;-81
2023/01/29 07:57:06;;;;;;;42.72;28.10;;;;;;;0.28;100.00;102851.66;5215727;28;20490;-81
2023/01/29 07:59:38;;;;;;;46.60;28.42;;;;;;;0.30;100.00;102845.50;5213317;28;20026;-81
2023/01/29 08:02:09;;;;;;;42.28;25.80;;;;;;;0.55;100.00;102832.78;5216715;28;20034;-81
2023/01/29 08:04:40;;;;;;;44.80;28.05;;;;;;;0.63;100.00;102834.38;5212600;28;20027;-81
2023/01/29 08:07:12;;;;;;;43.58;26.60;;;;;;;0.60;100.00;102837.06;5215302;28;20046;-82
2023/01/29 08:09:47;;;;;;;43.80;28.15;;;;;;;0.63;100.00;102831.75;5191419;28;20114;-81
2023/01/29 08:12:19;;;;;;;44.60;28.60;;;;;;;0.54;100.00;102836.31;5222929;28;20129;-82
2023/01/29 08:14:50;;;;;;;46.85;28.13;;;;;;;0.65;100.00;102822.09;5213221;28;20473;-81
2023/01/29 08:17:22;;;;;;;41.72;26.25;;;;;;;0.83;100.00;102828.75;5219547;28;20474;-82
2023/01/29 08:19:53;;;;;;;46.13;28.95;;;;;;;0.73;100.00;102823.66;5221075;28;20049;-82
2023/01/29 08:22:25;;;;;;;44.55;27.67;;;;;;;0.69;100.00;102834.28;5205073;28;20030;-81
2023/01/29 08:24:56;;;;;;;43.97;28.52;;;;;;;0.61;100.00;102820.44;5205170;28;20022;-82
2023/01/29 08:27:28;;;;;;;42.30;28.30;;;;;;;0.57;100.00;102820.47;5222269;28;20564;-82
2023/01/29 08:29:59;;;;;;;41.80;26.65;;;;;;;0.52;100.00;102814.44;5230073;28;20033;-82
2023/01/29 08:32:31;;;;;;;44.65;28.42;;;;;;;0.50;100.00;102818.00;5207338;28;20034;-82
2023/01/29 08:35:03;;;;;;;44.40;27.67;;;;;;;0.48;100.00;102815.41;5203806;28;20058;-82
2023/01/29 08:37:34;;;;;;;39.00;25.90;;;;;;;0.49;100.00;102813.63;5218441;28;20394;-82
2023/01/29 08:40:08;;;;;;;43.53;28.35;;;;;;;0.43;100.00;102809.38;5222127;28;20022;-82
2023/01/29 08:42:40;;;;;;;40.70;26.67;;;;;;;0.45;100.00;102804.94;5220956;28;20046;-82
2023/01/29 08:45:11;;;;;;;42.65;26.40;;;;;;;0.46;100.00;102800.59;5220978;28;20026;-83
2023/01/29 08:47:48;;;;;;;42.97;27.27;;;;;;;0.46;100.00;102793.56;5220378;28;20030;-82
2023/01/29 08:50:19;;;;;;;40.20;25.85;;;;;;;0.47;100.00;102791.81;5215219;28;20031;-82
2023/01/29 08:52:57;;;;;;;39.38;26.35;;;;;;;0.50;100.00;102795.22;5204483;28;20038;-82
2023/01/29 08:55:31;;;;;;;42.50;26.95;;;;;;;0.56;100.00;102786.34;5210085;28;20030;-82
2023/01/29 08:58:04;;;;;;;40.63;27.00;;;;;;;0.51;100.00;102801.38;5209506;28;20030;-82
2023/01/29 09:00:36;;;;;;;42.65;29.67;;;;;;;0.52;100.00;102798.69;5205193;28;20077;-82
2023/01/29 09:03:08;;;;;;;37.15;23.88;;;;;;;0.63;100.00;102793.25;5220751;28;20428;-82
2023/01/29 09:05:40;;;;;;;41.30;26.85;;;;;;;0.58;100.00;102792.47;5228537;28;20033;-82
2023/01/29 09:08:12;;;;;;;36.58;24.70;;;;;;;0.64;100.00;102786.22;5226121;28;20073;-82
2023/01/29 09:10:43;;;;;;;40.90;27.65;;;;;;;0.65;100.00;102783.56;5223354;28;20030;-83
2023/01/29 09:13:14;;;;;;;44.45;26.83;;;;;;;0.70;100.00;102799.22;5218456;28;20049;-82
2023/01/29 09:15:46;;;;;;;42.38;25.42;;;;;;;0.75;100.00;102790.38;5210870;28;20393;-82
2023/01/29 09:18:20;;;;;;;37.33;24.23;;;;;;;0.78;100.00;102788.56;5214872;28;20030;-82
2023/01/29 09:20:52;;;;;;;36.60;25.55;;;;;;;0.82;100.00;102783.22;5236122;28;20475;-82
2023/01/29 09:23:24;;;;;;;37.38;24.88;;;;;;;0.89;100.00;102776.91;5239517;28;20486;-82
2023/01/29 09:25:56;;;;;;;35.55;25.23;;;;;;;0.92;100.00;102778.63;5232669;28;20026;-82
2023/01/29 09:28:27;;;;;;;36.75;24.70;;;;;;;0.93;100.00;102775.97;5219232;28;20034;-82
2023/01/29 09:31:02;;;;;;;36.20;23.48;;;;;;;1.00;100.00;102786.34;5220831;28;20045;-83
2023/01/29 09:33:34;;;;;;;36.30;25.80;;;;;;;0.98;100.00;102783.75;5239813;28;20069;-82
2023/01/29 09:36:06;;;;;;;43.22;23.90;;;;;;;0.96;100.00;102777.66;5225275;28;20026;-82
2023/01/29 09:38:38;;;;;;;36.08;23.98;;;;;;;0.95;100.00;102778.59;5240153;28;20033;-82
2023/01/29 09:41:39;;;;;;;39.20;23.35;;;;;;;1.05;100.00;102779.22;5239421;28;20084;-82
2023/01/29 09:44:23;;;;;;;36.42;23.25;;;;;;;1.02;100.00;102767.03;5226524;28;20068;-82
2023/01/29 09:46:56;;;;;;;34.92;25.05;;;;;;;1.05;100.00;102766.09;5218399;28;20041;-82
2023/01/29 09:49:38;;;;;;;33.22;22.20;;;;;;;1.09;100.00;102781.78;5232525;28;20411;-82
2023/01/29 09:52:13;;;;;;;35.63;22.92;;;;;;;1.13;100.00;102766.78;5237999;28;20371;-82
2023/01/29 09:54:55;;;;;;;32.65;22.40;;;;;;;1.15;100.00;102778.13;5239328;28;20030;-82
2023/01/29 09:57:38;;;;;;;37.05;24.98;;;;;;;1.20;100.00;102778.91;5240155;28;20036;-82
2023/01/29 10:00:39;;;;;;;36.08;22.67;;;;;;;1.29;100.00;102777.81;5239635;28;20022;-83
2023/01/29 10:03:10;;;;;;;33.88;21.55;;;;;;;1.21;100.00;102770.13;5222514;28;20037;-83
2023/01/29 10:05:54;;;;;;;33.50;22.45;;;;;;;1.27;100.00;102771.75;5241089;28;20018;-82
2023/01/29 10:08:54;;;;;;;32.38;20.95;;;;;;;1.32;100.00;102776.00;5241136;28;20024;-83
2023/01/29 10:11:38;;;;;;;33.65;20.15;;;;;;;1.37;100.00;102778.53;5207183;28;20057;-82
2023/01/29 10:14:28;;;;;;;30.05;19.77;;;;;;;1.47;100.00;102776.53;5222883;28;20026;-83
2023/01/29 10:17:14;;;;;;;31.30;20.23;;;;;;;1.50;100.00;102779.94;5221562;28;20452;-83
2023/01/29 10:19:56;;;;;;;29.15;18.48;;;;;;;1.60;100.00;102774.50;5222873;28;20026;-83
2023/01/29 10:22:56;;;;;;;27.73;18.10;;;;;;;1.63;100.00;102769.13;5223171;28;20513;-83
2023/01/29 10:25:27;;;;;;;30.40;19.65;;;;;;;1.61;100.00;102774.41;5224035;28;20101;-83
2023/01/29 10:28:00;;;;;;;32.45;20.17;;;;;;;1.65;100.00;102770.84;5241445;28;20117;-84
2023/01/29 10:30:39;;;;;;;30.30;19.60;;;;;;;1.67;100.00;102768.16;5221832;28;20567;-82
2023/01/29 10:33:17;;;;;;;26.05;18.73;;;;;;;1.76;100.00;102778.47;5222873;28;20030;-83
2023/01/29 10:35:54;;;;;;;29.05;19.30;;;;;;;1.74;100.00;102771.53;5216039;28;20040;-83
2023/01/29 10:38:38;;;;;;;29.80;18.30;;;;;;;1.82;100.00;102759.91;5223344;28;20594;-83
2023/01/29 10:41:10;;;;;;;30.35;18.85;;;;;;;1.78;100.00;102760.88;5223309;28;20062;-83
2023/01/29 10:44:04;;;;;;;25.63;18.17;;;;;;;1.87;100.00;102755.34;5223485;28;20565;-83
2023/01/29 10:47:13;;;;;;;27.33;18.15;;;;;;;1.95;100.00;102762.22;5222143;28;20030;-82
2023/01/29 10:50:08;;;;;;;26.33;17.40;;;;;;;1.95;100.00;102751.69;5190518;28;20035;-83
2023/01/29 10:52:52;;;;;;;29.48;18.13;;;;;;;2.00;100.00;102745.41;5198162;28;20027;-82
2023/01/29 10:55:33;;;;;;;28.05;17.48;;;;;;;2.01;100.00;102752.38;5198341;28;20164;-82
2023/01/29 10:58:22;;;;;;;24.88;17.25;;;;;;;2.08;100.00;102751.31;5199680;28;20501;-82
2023/01/29 11:00:54;;;;;;;27.15;17.48;;;;;;;2.12;100.00;102749.44;5213920;28;20100;-82
2023/01/29 11:03:29;;;;;;;25.80;17.45;;;;;;;2.18;100.00;102744.03;5186261;28;20026;-82
2023/01/29 11:06:19;;;;;;;25.75;18.38;;;;;;;2.16;100.00;102737.94;5217830;28;20448;-82
2023/01/29 11:09:02;;;;;;;25.73;17.45;;;;;;;2.30;100.00;102731.41;5201784;28;20023;-82
2023/01/29 11:12:02;;;;;;;22.88;16.50;;;;;;;2.45;100.00;102723.97;5201839;28;20069;-81
2023/01/29 11:14:41;;;;;;;25.52;16.73;;;;;;;2.44;100.00;102708.22;5185010;28;20383;-82
2023/01/29 11:17:18;;;;;;;26.33;16.80;;;;;;;2.43;100.00;102709.97;5218790;28;20496;-82
2023/01/29 11:19:52;;;;;;;23.33;16.83;;;;;;;2.40;100.00;102704.81;5221585;28;20550;-82
2023/01/29 11:22:25;;;;;;;25.42;17.35;;;;;;;2.49;100.00;102697.53;5221370;28;20041;-82
2023/01/29 11:25:18;;;;;;;23.10;17.00;;;;;;;2.45;100.00;102702.03;5222672;28;20495;-82
2023/01/29 11:28:01;;;;;;;24.27;18.02;;;;;;;2.35;100.00;102688.28;5221618;28;20082;-82
2023/01/29 11:30:37;;;;;;;26.20;17.92;;;;;;;2.35;100.00;102675.09;5220794;28;20646;-82
2023/01/29 11:33:18;;;;;;;25.10;18.67;;;;;;;2.40;100.00;102665.31;5221085;28;20031;-82
2023/01/29 11:35:55;;;;;;;29.75;18.67;;;;;;;2.49;100.00;102664.16;5221125;28;20474;-82
2023/01/29 11:38:28;;;;;;;24.75;17.10;;;;;;;2.61;100.00;102662.91;5220719;28;20407;-82
2023/01/29 11:41:17;;;;;;;27.90;18.05;;;;;;;2.68;100.00;102661.81;5221273;28;20034;-82
2023/01/29 11:43:49;;;;;;;27.92;20.25;;;;;;;2.53;100.00;102663.16;5220368;28;20058;-81
2023/01/29 11:46:20;;;;;;;24.55;17.95;;;;;;;2.58;100.00;102652.50;5221437;28;20113;-81
2023/01/29 11:48:54;;;;;;;26.08;18.60;;;;;;;2.63;100.00;102663.75;5225701;28;20026;-81
2023/01/29 11:51:28;;;;;;;26.05;18.63;;;;;;;2.71;100.00;102631.88;5241391;28;20109;-81
2023/01/29 11:54:04;;;;;;;24.08;19.02;;;;;;;2.83;100.00;102635.00;5242396;28;20022;-81
2023/01/29 11:56:41;;;;;;;23.87;18.00;;;;;;;2.82;100.00;102635.03;5241980;28;20030;-81
2023/01/29 11:59:55;;;;;;;23.58;16.73;;;;;;;2.95;100.00;102617.94;5224940;28;20050;-82
2023/01/29 12:02:30;;;;;;;25.75;19.23;;;;;;;2.91;100.00;102612.78;5201024;28;20126;-82
2023/01/29 12:05:20;;;;;;;25.60;18.13;;;;;;;2.93;100.00;102595.16;5220543;28;20022;-81
2023/01/29 12:07:58;;;;;;;24.83;17.38;;;;;;;2.96;100.00;102587.16;5220810;28;20022;-82
2023/01/29 12:10:34;;;;;;;24.88;17.23;;;;;;;3.05;100.00;102592.13;5219433;28;20062;-81
2023/01/29 12:13:09;;;;;;;21.70;17.57;;;;;;;3.06;100.00;102585.09;5238009;28;20049;-81
2023/01/29 12:15:42;;;;;;;22.05;17.73;;;;;;;2.99;100.00;102587.91;5224630;28;20029;-82
2023/01/29 12:18:25;;;;;;;23.88;18.27;;;;;;;2.98;100.00;102577.41;5224405;28;20030;-82